sensor_id;sensor_type;location;lat;lon;timestamp;P1;durP1;ratioP1;P2;durP2;ratioP2
7375;SDS011;3728;42.266;24.944;2022-10-16T00:01:42;11.13;;;4.43;;
7375;SDS011;3728;42.266;24.944;2022-10-16T00:04:10;6.43;;;4.00;;
7375;SDS011;3728;42.266;24.944;2022-10-16T00:06:38;7.47;;;4.40;;
7375;SDS011;3728;42.266;24.944;2022-10-16T00:09:06;9.67;;;4.50;;
7375;SDS011;3728;42.266;24.944;2022-10-16T00:11:35;9.07;;;4.30;;
7375;SDS011;3728;42.266;24.944;2022-10-16T00:14:07;6.57;;;4.30;;
7375;SDS011;3728;42.266;24.944;2022-10-16T00:16:41;11.97;;;4.67;;
7375;SDS011;3728;42.266;24.944;2022-10-16T00:19:10;9.00;;;4.40;;
7375;SDS011;3728;42.266;24.944;2022-10-16T00:21:38;5.93;;;4.20;;
7375;SDS011;3728;42.266;24.944;2022-10-16T00:24:07;10.03;;;4.30;;
7375;SDS011;3728;42.266;24.944;2022-10-16T00:26:37;8.43;;;4.43;;
7375;SDS011;3728;42.266;24.944;2022-10-16T00:29:05;8.97;;;5.07;;
7375;SDS011;3728;42.266;24.944;2022-10-16T00:31:34;10.93;;;4.47;;
7375;SDS011;3728;42.266;24.944;2022-10-16T00:34:02;12.73;;;4.87;;
7375;SDS011;3728;42.266;24.944;2022-10-16T00:36:29;6.50;;;4.30;;
7375;SDS011;3728;42.266;24.944;2022-10-16T00:38:58;9.93;;;4.40;;
7375;SDS011;3728;42.266;24.944;2022-10-16T00:41:28;8.00;;;4.77;;
7375;SDS011;3728;42.266;24.944;2022-10-16T00:43:58;7.80;;;4.80;;
7375;SDS011;3728;42.266;24.944;2022-10-16T00:46:47;8.07;;;4.70;;
7375;SDS011;3728;42.266;24.944;2022-10-16T00:49:16;7.07;;;4.43;;
7375;SDS011;3728;42.266;24.944;2022-10-16T00:51:50;6.17;;;4.63;;
7375;SDS011;3728;42.266;24.944;2022-10-16T00:54:21;7.67;;;4.27;;
7375;SDS011;3728;42.266;24.944;2022-10-16T00:57:03;6.37;;;5.00;;
7375;SDS011;3728;42.266;24.944;2022-10-16T00:59:34;5.90;;;4.30;;
7375;SDS011;3728;42.266;24.944;2022-10-16T01:02:06;5.77;;;4.70;;
7375;SDS011;3728;42.266;24.944;2022-10-16T01:04:39;11.07;;;5.20;;
7375;SDS011;3728;42.266;24.944;2022-10-16T01:12:53;4.80;;;4.30;;
7375;SDS011;3728;42.266;24.944;2022-10-16T01:15:39;8.93;;;5.57;;
7375;SDS011;3728;42.266;24.944;2022-10-16T01:18:54;8.63;;;6.00;;
7375;SDS011;3728;42.266;24.944;2022-10-16T01:21:41;12.47;;;7.80;;
7375;SDS011;3728;42.266;24.944;2022-10-16T01:24:33;10.13;;;7.63;;
7375;SDS011;3728;42.266;24.944;2022-10-16T01:32:57;14.07;;;6.33;;
7375;SDS011;3728;42.266;24.944;2022-10-16T01:35:45;7.97;;;4.93;;
7375;SDS011;3728;42.266;24.944;2022-10-16T01:38:21;7.40;;;4.43;;
7375;SDS011;3728;42.266;24.944;2022-10-16T01:41:03;9.57;;;4.77;;
7375;SDS011;3728;42.266;24.944;2022-10-16T01:43:46;7.93;;;4.20;;
7375;SDS011;3728;42.266;24.944;2022-10-16T01:46:29;6.57;;;4.20;;
7375;SDS011;3728;42.266;24.944;2022-10-16T01:49:00;7.40;;;5.30;;
7375;SDS011;3728;42.266;24.944;2022-10-16T01:51:30;8.03;;;6.00;;
7375;SDS011;3728;42.266;24.944;2022-10-16T01:53:59;8.10;;;5.23;;
7375;SDS011;3728;42.266;24.944;2022-10-16T01:56:28;9.00;;;5.20;;
7375;SDS011;3728;42.266;24.944;2022-10-16T01:59:04;5.60;;;4.23;;
7375;SDS011;3728;42.266;24.944;2022-10-16T02:01:38;5.67;;;4.27;;
7375;SDS011;3728;42.266;24.944;2022-10-16T02:04:26;6.93;;;4.90;;
7375;SDS011;3728;42.266;24.944;2022-10-16T02:06:59;6.33;;;4.20;;
7375;SDS011;3728;42.266;24.944;2022-10-16T02:09:30;10.10;;;4.63;;
7375;SDS011;3728;42.266;24.944;2022-10-16T02:12:03;11.70;;;4.60;;
7375;SDS011;3728;42.266;24.944;2022-10-16T02:14:56;7.90;;;4.80;;
7375;SDS011;3728;42.266;24.944;2022-10-16T02:17:24;17.00;;;5.53;;
7375;SDS011;3728;42.266;24.944;2022-10-16T02:19:53;16.10;;;5.53;;
7375;SDS011;3728;42.266;24.944;2022-10-16T02:22:28;9.47;;;4.70;;
7375;SDS011;3728;42.266;24.944;2022-10-16T02:30:55;11.63;;;5.93;;
7375;SDS011;3728;42.266;24.944;2022-10-16T02:33:28;7.27;;;5.67;;
7375;SDS011;3728;42.266;24.944;2022-10-16T02:35:57;8.30;;;5.80;;
7375;SDS011;3728;42.266;24.944;2022-10-16T02:38:25;8.50;;;5.17;;
7375;SDS011;3728;42.266;24.944;2022-10-16T02:40:54;8.63;;;5.37;;
7375;SDS011;3728;42.266;24.944;2022-10-16T02:43:22;5.53;;;4.63;;
7375;SDS011;3728;42.266;24.944;2022-10-16T02:45:50;5.07;;;3.60;;
7375;SDS011;3728;42.266;24.944;2022-10-16T02:48:17;7.87;;;4.20;;
7375;SDS011;3728;42.266;24.944;2022-10-16T02:50:45;4.40;;;3.57;;
7375;SDS011;3728;42.266;24.944;2022-10-16T02:53:12;6.03;;;4.10;;
7375;SDS011;3728;42.266;24.944;2022-10-16T02:55:40;5.27;;;4.13;;
7375;SDS011;3728;42.266;24.944;2022-10-16T02:58:08;4.80;;;3.53;;
7375;SDS011;3728;42.266;24.944;2022-10-16T03:00:35;10.33;;;3.70;;
7375;SDS011;3728;42.266;24.944;2022-10-16T03:03:03;4.13;;;3.73;;
7375;SDS011;3728;42.266;24.944;2022-10-16T03:05:30;7.67;;;4.23;;
7375;SDS011;3728;42.266;24.944;2022-10-16T03:07:58;4.37;;;3.70;;
7375;SDS011;3728;42.266;24.944;2022-10-16T03:10:27;6.27;;;3.83;;
7375;SDS011;3728;42.266;24.944;2022-10-16T03:12:54;5.40;;;4.50;;
7375;SDS011;3728;42.266;24.944;2022-10-16T03:15:22;6.30;;;4.30;;
7375;SDS011;3728;42.266;24.944;2022-10-16T03:17:49;10.20;;;5.00;;
7375;SDS011;3728;42.266;24.944;2022-10-16T03:20:17;8.37;;;4.23;;
7375;SDS011;3728;42.266;24.944;2022-10-16T03:22:44;7.07;;;4.33;;
7375;SDS011;3728;42.266;24.944;2022-10-16T03:25:12;6.87;;;3.93;;
7375;SDS011;3728;42.266;24.944;2022-10-16T03:27:39;5.73;;;4.27;;
7375;SDS011;3728;42.266;24.944;2022-10-16T03:30:07;5.47;;;4.33;;
7375;SDS011;3728;42.266;24.944;2022-10-16T03:32:35;8.87;;;4.63;;
7375;SDS011;3728;42.266;24.944;2022-10-16T03:35:03;8.10;;;5.70;;
7375;SDS011;3728;42.266;24.944;2022-10-16T03:37:31;9.27;;;5.87;;
7375;SDS011;3728;42.266;24.944;2022-10-16T03:39:58;10.53;;;5.47;;
7375;SDS011;3728;42.266;24.944;2022-10-16T03:42:26;9.87;;;4.83;;
7375;SDS011;3728;42.266;24.944;2022-10-16T03:44:53;7.77;;;4.97;;
7375;SDS011;3728;42.266;24.944;2022-10-16T03:47:21;16.77;;;5.03;;
7375;SDS011;3728;42.266;24.944;2022-10-16T03:49:50;9.03;;;5.43;;
7375;SDS011;3728;42.266;24.944;2022-10-16T03:52:17;7.70;;;5.70;;
7375;SDS011;3728;42.266;24.944;2022-10-16T03:54:45;7.83;;;5.87;;
7375;SDS011;3728;42.266;24.944;2022-10-16T03:57:12;8.93;;;5.70;;
7375;SDS011;3728;42.266;24.944;2022-10-16T03:59:40;11.77;;;7.97;;
7375;SDS011;3728;42.266;24.944;2022-10-16T04:02:07;12.53;;;9.17;;
7375;SDS011;3728;42.266;24.944;2022-10-16T04:04:35;15.73;;;10.83;;
7375;SDS011;3728;42.266;24.944;2022-10-16T04:07:02;26.77;;;18.53;;
7375;SDS011;3728;42.266;24.944;2022-10-16T04:09:30;26.67;;;16.00;;
7375;SDS011;3728;42.266;24.944;2022-10-16T04:11:57;24.37;;;10.33;;
7375;SDS011;3728;42.266;24.944;2022-10-16T04:14:25;18.33;;;9.67;;
7375;SDS011;3728;42.266;24.944;2022-10-16T04:16:52;14.73;;;8.87;;
7375;SDS011;3728;42.266;24.944;2022-10-16T04:19:20;18.83;;;9.33;;
7375;SDS011;3728;42.266;24.944;2022-10-16T04:21:47;17.53;;;10.37;;
7375;SDS011;3728;42.266;24.944;2022-10-16T04:24:14;18.17;;;10.53;;
7375;SDS011;3728;42.266;24.944;2022-10-16T04:26:42;18.77;;;9.93;;
7375;SDS011;3728;42.266;24.944;2022-10-16T04:29:09;18.30;;;10.27;;
7375;SDS011;3728;42.266;24.944;2022-10-16T04:31:37;21.23;;;9.23;;
7375;SDS011;3728;42.266;24.944;2022-10-16T04:34:04;16.10;;;9.00;;
7375;SDS011;3728;42.266;24.944;2022-10-16T04:36:32;17.40;;;9.33;;
7375;SDS011;3728;42.266;24.944;2022-10-16T04:38:59;16.03;;;9.03;;
7375;SDS011;3728;42.266;24.944;2022-10-16T04:41:27;23.77;;;8.47;;
7375;SDS011;3728;42.266;24.944;2022-10-16T04:43:54;22.53;;;7.70;;
7375;SDS011;3728;42.266;24.944;2022-10-16T04:46:22;18.67;;;7.53;;
7375;SDS011;3728;42.266;24.944;2022-10-16T04:48:49;19.03;;;7.93;;
7375;SDS011;3728;42.266;24.944;2022-10-16T04:51:17;11.33;;;6.30;;
7375;SDS011;3728;42.266;24.944;2022-10-16T04:53:45;9.83;;;5.73;;
7375;SDS011;3728;42.266;24.944;2022-10-16T04:56:15;11.60;;;4.70;;
7375;SDS011;3728;42.266;24.944;2022-10-16T04:58:43;8.43;;;5.50;;
7375;SDS011;3728;42.266;24.944;2022-10-16T05:01:11;8.17;;;4.40;;
7375;SDS011;3728;42.266;24.944;2022-10-16T05:03:38;12.77;;;5.67;;
7375;SDS011;3728;42.266;24.944;2022-10-16T05:06:06;6.90;;;4.70;;
7375;SDS011;3728;42.266;24.944;2022-10-16T05:08:34;9.33;;;4.60;;
7375;SDS011;3728;42.266;24.944;2022-10-16T05:11:01;9.93;;;4.43;;
7375;SDS011;3728;42.266;24.944;2022-10-16T05:13:29;9.30;;;4.90;;
7375;SDS011;3728;42.266;24.944;2022-10-16T05:15:56;9.47;;;5.03;;
7375;SDS011;3728;42.266;24.944;2022-10-16T05:18:24;9.50;;;5.27;;
7375;SDS011;3728;42.266;24.944;2022-10-16T05:20:51;10.43;;;5.90;;
7375;SDS011;3728;42.266;24.944;2022-10-16T05:23:19;12.17;;;5.57;;
7375;SDS011;3728;42.266;24.944;2022-10-16T05:25:53;8.67;;;5.63;;
7375;SDS011;3728;42.266;24.944;2022-10-16T05:28:25;12.77;;;6.03;;
7375;SDS011;3728;42.266;24.944;2022-10-16T05:30:54;7.63;;;4.57;;
7375;SDS011;3728;42.266;24.944;2022-10-16T05:33:23;11.03;;;4.93;;
7375;SDS011;3728;42.266;24.944;2022-10-16T05:35:51;12.07;;;5.70;;
7375;SDS011;3728;42.266;24.944;2022-10-16T05:38:19;8.33;;;4.80;;
7375;SDS011;3728;42.266;24.944;2022-10-16T05:40:53;7.30;;;4.37;;
7375;SDS011;3728;42.266;24.944;2022-10-16T05:43:21;10.43;;;4.27;;
7375;SDS011;3728;42.266;24.944;2022-10-16T05:45:55;10.60;;;5.17;;
7375;SDS011;3728;42.266;24.944;2022-10-16T05:48:26;12.03;;;5.30;;
7375;SDS011;3728;42.266;24.944;2022-10-16T05:51:03;9.03;;;4.83;;
7375;SDS011;3728;42.266;24.944;2022-10-16T05:53:36;11.23;;;4.93;;
7375;SDS011;3728;42.266;24.944;2022-10-16T05:56:06;11.93;;;4.97;;
7375;SDS011;3728;42.266;24.944;2022-10-16T05:58:35;8.40;;;5.80;;
7375;SDS011;3728;42.266;24.944;2022-10-16T06:01:16;41.03;;;22.73;;
7375;SDS011;3728;42.266;24.944;2022-10-16T06:03:45;45.77;;;22.87;;
7375;SDS011;3728;42.266;24.944;2022-10-16T06:06:14;38.70;;;16.87;;
7375;SDS011;3728;42.266;24.944;2022-10-16T06:08:47;19.03;;;8.43;;
7375;SDS011;3728;42.266;24.944;2022-10-16T06:11:17;8.93;;;6.00;;
7375;SDS011;3728;42.266;24.944;2022-10-16T06:13:50;9.53;;;5.60;;
7375;SDS011;3728;42.266;24.944;2022-10-16T06:16:20;15.43;;;7.37;;
7375;SDS011;3728;42.266;24.944;2022-10-16T06:18:47;13.13;;;7.77;;
7375;SDS011;3728;42.266;24.944;2022-10-16T06:21:17;8.73;;;6.10;;
7375;SDS011;3728;42.266;24.944;2022-10-16T06:23:48;13.33;;;6.60;;
7375;SDS011;3728;42.266;24.944;2022-10-16T06:26:17;10.13;;;6.43;;
7375;SDS011;3728;42.266;24.944;2022-10-16T06:28:47;10.27;;;5.20;;
7375;SDS011;3728;42.266;24.944;2022-10-16T06:31:15;12.10;;;4.90;;
7375;SDS011;3728;42.266;24.944;2022-10-16T06:33:43;5.40;;;4.50;;
7375;SDS011;3728;42.266;24.944;2022-10-16T06:36:14;12.87;;;5.37;;
7375;SDS011;3728;42.266;24.944;2022-10-16T06:38:43;9.00;;;5.60;;
7375;SDS011;3728;42.266;24.944;2022-10-16T06:41:12;11.63;;;7.27;;
7375;SDS011;3728;42.266;24.944;2022-10-16T06:43:42;13.77;;;8.23;;
7375;SDS011;3728;42.266;24.944;2022-10-16T06:46:12;11.10;;;6.83;;
7375;SDS011;3728;42.266;24.944;2022-10-16T06:48:42;7.90;;;5.70;;
7375;SDS011;3728;42.266;24.944;2022-10-16T06:51:16;7.97;;;5.93;;
7375;SDS011;3728;42.266;24.944;2022-10-16T06:53:47;8.20;;;5.33;;
7375;SDS011;3728;42.266;24.944;2022-10-16T06:56:30;6.50;;;4.60;;
7375;SDS011;3728;42.266;24.944;2022-10-16T06:58:59;8.33;;;4.37;;
7375;SDS011;3728;42.266;24.944;2022-10-16T07:01:28;6.47;;;4.47;;
7375;SDS011;3728;42.266;24.944;2022-10-16T07:03:56;14.43;;;6.60;;
7375;SDS011;3728;42.266;24.944;2022-10-16T07:06:24;10.83;;;5.40;;
7375;SDS011;3728;42.266;24.944;2022-10-16T07:08:53;10.33;;;4.97;;
7375;SDS011;3728;42.266;24.944;2022-10-16T07:11:22;11.67;;;5.60;;
7375;SDS011;3728;42.266;24.944;2022-10-16T07:13:50;10.87;;;5.23;;
7375;SDS011;3728;42.266;24.944;2022-10-16T07:16:26;8.20;;;5.13;;
7375;SDS011;3728;42.266;24.944;2022-10-16T07:18:56;7.00;;;4.27;;
7375;SDS011;3728;42.266;24.944;2022-10-16T07:21:28;8.47;;;4.60;;
7375;SDS011;3728;42.266;24.944;2022-10-16T07:24:02;10.53;;;4.40;;
7375;SDS011;3728;42.266;24.944;2022-10-16T07:26:33;6.77;;;4.30;;
7375;SDS011;3728;42.266;24.944;2022-10-16T07:29:04;7.63;;;4.80;;
7375;SDS011;3728;42.266;24.944;2022-10-16T07:31:42;6.80;;;4.10;;
7375;SDS011;3728;42.266;24.944;2022-10-16T07:34:11;8.47;;;4.27;;
7375;SDS011;3728;42.266;24.944;2022-10-16T07:36:40;11.87;;;7.93;;
7375;SDS011;3728;42.266;24.944;2022-10-16T07:39:12;9.07;;;4.73;;
7375;SDS011;3728;42.266;24.944;2022-10-16T07:41:40;6.23;;;4.40;;
7375;SDS011;3728;42.266;24.944;2022-10-16T07:44:07;11.87;;;4.67;;
7375;SDS011;3728;42.266;24.944;2022-10-16T07:46:35;10.30;;;4.27;;
7375;SDS011;3728;42.266;24.944;2022-10-16T07:49:02;10.43;;;4.60;;
7375;SDS011;3728;42.266;24.944;2022-10-16T07:51:31;7.27;;;4.00;;
7375;SDS011;3728;42.266;24.944;2022-10-16T07:53:59;11.83;;;4.97;;
7375;SDS011;3728;42.266;24.944;2022-10-16T07:56:27;7.53;;;4.80;;
7375;SDS011;3728;42.266;24.944;2022-10-16T07:58:58;8.27;;;4.87;;
7375;SDS011;3728;42.266;24.944;2022-10-16T08:01:31;8.47;;;4.43;;
7375;SDS011;3728;42.266;24.944;2022-10-16T08:03:59;7.87;;;4.13;;
7375;SDS011;3728;42.266;24.944;2022-10-16T08:06:28;4.07;;;3.67;;
7375;SDS011;3728;42.266;24.944;2022-10-16T08:08:55;5.40;;;3.57;;
7375;SDS011;3728;42.266;24.944;2022-10-16T08:11:23;8.43;;;3.90;;
7375;SDS011;3728;42.266;24.944;2022-10-16T08:13:51;10.87;;;4.17;;
7375;SDS011;3728;42.266;24.944;2022-10-16T08:16:21;5.93;;;3.70;;
7375;SDS011;3728;42.266;24.944;2022-10-16T08:18:49;9.33;;;4.97;;
7375;SDS011;3728;42.266;24.944;2022-10-16T08:21:19;8.37;;;4.20;;
7375;SDS011;3728;42.266;24.944;2022-10-16T08:23:52;9.40;;;4.40;;
7375;SDS011;3728;42.266;24.944;2022-10-16T08:26:25;8.77;;;4.27;;
7375;SDS011;3728;42.266;24.944;2022-10-16T08:28:54;5.97;;;4.03;;
7375;SDS011;3728;42.266;24.944;2022-10-16T08:31:23;7.73;;;4.03;;
7375;SDS011;3728;42.266;24.944;2022-10-16T08:33:50;6.77;;;4.43;;
7375;SDS011;3728;42.266;24.944;2022-10-16T08:36:19;8.30;;;4.60;;
7375;SDS011;3728;42.266;24.944;2022-10-16T08:38:47;5.50;;;3.67;;
7375;SDS011;3728;42.266;24.944;2022-10-16T08:41:26;7.07;;;3.97;;
7375;SDS011;3728;42.266;24.944;2022-10-16T08:50:09;6.03;;;3.40;;
7375;SDS011;3728;42.266;24.944;2022-10-16T08:52:42;8.03;;;3.93;;
7375;SDS011;3728;42.266;24.944;2022-10-16T08:55:20;6.67;;;3.47;;
7375;SDS011;3728;42.266;24.944;2022-10-16T08:57:59;3.83;;;3.40;;
7375;SDS011;3728;42.266;24.944;2022-10-16T09:00:27;6.10;;;3.33;;
7375;SDS011;3728;42.266;24.944;2022-10-16T09:05:52;6.30;;;4.23;;
7375;SDS011;3728;42.266;24.944;2022-10-16T09:08:53;6.50;;;3.60;;
7375;SDS011;3728;42.266;24.944;2022-10-16T09:14:40;4.57;;;3.50;;
7375;SDS011;3728;42.266;24.944;2022-10-16T09:23:50;8.27;;;3.80;;
7375;SDS011;3728;42.266;24.944;2022-10-16T09:26:18;5.23;;;3.70;;
7375;SDS011;3728;42.266;24.944;2022-10-16T09:28:49;4.13;;;3.23;;
7375;SDS011;3728;42.266;24.944;2022-10-16T09:31:20;4.90;;;3.70;;
7375;SDS011;3728;42.266;24.944;2022-10-16T09:33:55;13.07;;;3.97;;
7375;SDS011;3728;42.266;24.944;2022-10-16T09:36:27;7.60;;;3.10;;
7375;SDS011;3728;42.266;24.944;2022-10-16T09:39:10;5.17;;;3.60;;
7375;SDS011;3728;42.266;24.944;2022-10-16T09:41:42;5.53;;;3.87;;
7375;SDS011;3728;42.266;24.944;2022-10-16T09:44:19;7.23;;;3.40;;
7375;SDS011;3728;42.266;24.944;2022-10-16T09:47:02;8.60;;;3.30;;
7375;SDS011;3728;42.266;24.944;2022-10-16T09:49:37;5.53;;;3.40;;
7375;SDS011;3728;42.266;24.944;2022-10-16T09:52:12;6.97;;;3.20;;
7375;SDS011;3728;42.266;24.944;2022-10-16T09:54:51;6.17;;;3.53;;
7375;SDS011;3728;42.266;24.944;2022-10-16T09:57:25;4.63;;;3.40;;
7375;SDS011;3728;42.266;24.944;2022-10-16T09:59:54;5.70;;;3.60;;
7375;SDS011;3728;42.266;24.944;2022-10-16T10:02:30;6.90;;;3.97;;
7375;SDS011;3728;42.266;24.944;2022-10-16T10:05:04;6.90;;;3.50;;
7375;SDS011;3728;42.266;24.944;2022-10-16T10:07:45;5.50;;;3.23;;
7375;SDS011;3728;42.266;24.944;2022-10-16T10:10:20;2.97;;;2.57;;
7375;SDS011;3728;42.266;24.944;2022-10-16T10:12:56;4.23;;;2.90;;
7375;SDS011;3728;42.266;24.944;2022-10-16T10:15:27;10.13;;;3.50;;
7375;SDS011;3728;42.266;24.944;2022-10-16T10:18:00;4.60;;;3.30;;
7375;SDS011;3728;42.266;24.944;2022-10-16T10:20:33;4.33;;;2.83;;
7375;SDS011;3728;42.266;24.944;2022-10-16T10:23:23;4.90;;;3.30;;
7375;SDS011;3728;42.266;24.944;2022-10-16T10:31:30;10.13;;;3.60;;
7375;SDS011;3728;42.266;24.944;2022-10-16T10:43:16;6.80;;;2.83;;
7375;SDS011;3728;42.266;24.944;2022-10-16T10:45:46;5.10;;;3.40;;
7375;SDS011;3728;42.266;24.944;2022-10-16T10:51:05;5.43;;;2.70;;
7375;SDS011;3728;42.266;24.944;2022-10-16T10:53:44;6.57;;;3.30;;
7375;SDS011;3728;42.266;24.944;2022-10-16T11:02:48;3.60;;;2.37;;
7375;SDS011;3728;42.266;24.944;2022-10-16T11:13:55;3.95;;;2.85;;
7375;SDS011;3728;42.266;24.944;2022-10-16T11:17:02;2.75;;;2.38;;
7375;SDS011;3728;42.266;24.944;2022-10-16T11:20:00;3.22;;;2.60;;
7375;SDS011;3728;42.266;24.944;2022-10-16T11:25:56;4.82;;;3.00;;
7375;SDS011;3728;42.266;24.944;2022-10-16T11:28:38;6.40;;;2.40;;
7375;SDS011;3728;42.266;24.944;2022-10-16T11:34:17;5.47;;;2.60;;
7375;SDS011;3728;42.266;24.944;2022-10-16T11:37:02;4.90;;;3.17;;
7375;SDS011;3728;42.266;24.944;2022-10-16T11:40:05;4.95;;;2.45;;
7375;SDS011;3728;42.266;24.944;2022-10-16T11:42:54;3.20;;;2.60;;
7375;SDS011;3728;42.266;24.944;2022-10-16T11:45:34;3.35;;;2.50;;
7375;SDS011;3728;42.266;24.944;2022-10-16T11:50:58;5.85;;;2.95;;
7375;SDS011;3728;42.266;24.944;2022-10-16T11:56:13;4.28;;;2.83;;
7375;SDS011;3728;42.266;24.944;2022-10-16T11:58:51;5.15;;;2.60;;
7375;SDS011;3728;42.266;24.944;2022-10-16T12:01:25;7.65;;;2.83;;
7375;SDS011;3728;42.266;24.944;2022-10-16T12:04:02;4.82;;;2.63;;
7375;SDS011;3728;42.266;24.944;2022-10-16T12:09:38;3.80;;;2.42;;
7375;SDS011;3728;42.266;24.944;2022-10-16T12:15:32;2.95;;;2.33;;
7375;SDS011;3728;42.266;24.944;2022-10-16T12:18:21;3.60;;;2.70;;
7375;SDS011;3728;42.266;24.944;2022-10-16T12:20:58;8.07;;;2.80;;
7375;SDS011;3728;42.266;24.944;2022-10-16T12:23:37;4.70;;;2.90;;
7375;SDS011;3728;42.266;24.944;2022-10-16T12:26:26;3.20;;;2.47;;
7375;SDS011;3728;42.266;24.944;2022-10-16T12:32:27;3.60;;;2.38;;
7375;SDS011;3728;42.266;24.944;2022-10-16T12:35:23;8.00;;;2.50;;
7375;SDS011;3728;42.266;24.944;2022-10-16T12:38:05;3.30;;;2.50;;
7375;SDS011;3728;42.266;24.944;2022-10-16T12:41:11;3.88;;;2.28;;
7375;SDS011;3728;42.266;24.944;2022-10-16T12:43:41;4.22;;;2.83;;
7375;SDS011;3728;42.266;24.944;2022-10-16T12:48:40;4.55;;;2.53;;
7375;SDS011;3728;42.266;24.944;2022-10-16T12:54:19;4.32;;;2.40;;
7375;SDS011;3728;42.266;24.944;2022-10-16T13:20:46;2.85;;;2.53;;
7375;SDS011;3728;42.266;24.944;2022-10-16T13:23:43;12.15;;;3.33;;
7375;SDS011;3728;42.266;24.944;2022-10-16T13:26:46;5.45;;;2.90;;
7375;SDS011;3728;42.266;24.944;2022-10-16T13:29:29;2.88;;;2.60;;
7375;SDS011;3728;42.266;24.944;2022-10-16T13:32:01;5.95;;;2.67;;
7375;SDS011;3728;42.266;24.944;2022-10-16T13:34:44;6.55;;;2.75;;
7375;SDS011;3728;42.266;24.944;2022-10-16T13:37:16;4.15;;;2.85;;
7375;SDS011;3728;42.266;24.944;2022-10-16T13:39:50;3.60;;;2.47;;
7375;SDS011;3728;42.266;24.944;2022-10-16T13:42:23;3.53;;;2.92;;
7375;SDS011;3728;42.266;24.944;2022-10-16T13:44:55;10.32;;;2.90;;
7375;SDS011;3728;42.266;24.944;2022-10-16T13:47:24;3.72;;;2.58;;
7375;SDS011;3728;42.266;24.944;2022-10-16T13:52:51;5.43;;;2.30;;
7375;SDS011;3728;42.266;24.944;2022-10-16T13:55:29;8.70;;;2.50;;
7375;SDS011;3728;42.266;24.944;2022-10-16T13:58:19;3.55;;;2.53;;
7375;SDS011;3728;42.266;24.944;2022-10-16T14:00:59;2.97;;;2.60;;
7375;SDS011;3728;42.266;24.944;2022-10-16T14:03:32;7.47;;;3.03;;
7375;SDS011;3728;42.266;24.944;2022-10-16T14:06:02;5.07;;;3.40;;
7375;SDS011;3728;42.266;24.944;2022-10-16T14:09:04;9.82;;;3.20;;
7375;SDS011;3728;42.266;24.944;2022-10-16T14:11:51;3.70;;;2.70;;
7375;SDS011;3728;42.266;24.944;2022-10-16T14:14:48;7.65;;;2.78;;
7375;SDS011;3728;42.266;24.944;2022-10-16T14:17:20;5.55;;;3.00;;
7375;SDS011;3728;42.266;24.944;2022-10-16T14:19:57;4.55;;;2.80;;
7375;SDS011;3728;42.266;24.944;2022-10-16T14:22:32;8.65;;;3.05;;
7375;SDS011;3728;42.266;24.944;2022-10-16T14:28:13;5.53;;;2.80;;
7375;SDS011;3728;42.266;24.944;2022-10-16T14:31:00;8.60;;;3.40;;
7375;SDS011;3728;42.266;24.944;2022-10-16T14:33:51;9.65;;;4.13;;
7375;SDS011;3728;42.266;24.944;2022-10-16T14:36:18;6.43;;;3.13;;
7375;SDS011;3728;42.266;24.944;2022-10-16T14:38:56;4.82;;;3.22;;
7375;SDS011;3728;42.266;24.944;2022-10-16T14:41:47;5.32;;;3.25;;
7375;SDS011;3728;42.266;24.944;2022-10-16T14:44:19;7.35;;;3.25;;
7375;SDS011;3728;42.266;24.944;2022-10-16T14:47:17;6.07;;;3.03;;
7375;SDS011;3728;42.266;24.944;2022-10-16T14:49:56;27.45;;;10.07;;
7375;SDS011;3728;42.266;24.944;2022-10-16T14:52:26;8.73;;;3.67;;
7375;SDS011;3728;42.266;24.944;2022-10-16T14:54:53;8.73;;;3.20;;
7375;SDS011;3728;42.266;24.944;2022-10-16T14:57:23;5.10;;;3.42;;
7375;SDS011;3728;42.266;24.944;2022-10-16T14:59:55;4.45;;;3.25;;
7375;SDS011;3728;42.266;24.944;2022-10-16T15:02:31;6.70;;;3.20;;
7375;SDS011;3728;42.266;24.944;2022-10-16T15:05:10;7.30;;;3.35;;
7375;SDS011;3728;42.266;24.944;2022-10-16T15:07:41;9.23;;;3.90;;
7375;SDS011;3728;42.266;24.944;2022-10-16T15:10:09;6.75;;;3.67;;
7375;SDS011;3728;42.266;24.944;2022-10-16T15:12:37;5.55;;;3.80;;
7375;SDS011;3728;42.266;24.944;2022-10-16T15:17:51;35.70;;;8.80;;
7375;SDS011;3728;42.266;24.944;2022-10-16T15:20:24;25.47;;;10.33;;
7375;SDS011;3728;42.266;24.944;2022-10-16T15:22:54;29.73;;;8.83;;
7375;SDS011;3728;42.266;24.944;2022-10-16T15:25:44;24.57;;;7.23;;
7375;SDS011;3728;42.266;24.944;2022-10-16T15:28:14;33.60;;;6.83;;
7375;SDS011;3728;42.266;24.944;2022-10-16T15:30:43;28.97;;;6.93;;
7375;SDS011;3728;42.266;24.944;2022-10-16T15:33:15;11.80;;;6.83;;
7375;SDS011;3728;42.266;24.944;2022-10-16T15:35:46;19.13;;;7.93;;
7375;SDS011;3728;42.266;24.944;2022-10-16T15:38:15;13.80;;;7.33;;
7375;SDS011;3728;42.266;24.944;2022-10-16T15:40:48;14.73;;;9.70;;
7375;SDS011;3728;42.266;24.944;2022-10-16T15:43:16;16.07;;;7.87;;
7375;SDS011;3728;42.266;24.944;2022-10-16T15:46:08;20.37;;;7.60;;
7375;SDS011;3728;42.266;24.944;2022-10-16T15:48:36;14.50;;;6.63;;
7375;SDS011;3728;42.266;24.944;2022-10-16T15:51:04;10.53;;;6.23;;
7375;SDS011;3728;42.266;24.944;2022-10-16T15:53:34;12.23;;;5.80;;
7375;SDS011;3728;42.266;24.944;2022-10-16T15:56:24;12.03;;;5.30;;
7375;SDS011;3728;42.266;24.944;2022-10-16T15:58:52;8.73;;;4.47;;
7375;SDS011;3728;42.266;24.944;2022-10-16T16:01:23;7.07;;;3.77;;
7375;SDS011;3728;42.266;24.944;2022-10-16T16:03:53;8.30;;;4.50;;
7375;SDS011;3728;42.266;24.944;2022-10-16T16:06:22;6.33;;;4.57;;
7375;SDS011;3728;42.266;24.944;2022-10-16T16:08:53;17.47;;;5.00;;
7375;SDS011;3728;42.266;24.944;2022-10-16T16:11:23;8.27;;;4.50;;
7375;SDS011;3728;42.266;24.944;2022-10-16T16:13:51;9.53;;;4.50;;
7375;SDS011;3728;42.266;24.944;2022-10-16T16:16:21;11.20;;;4.83;;
7375;SDS011;3728;42.266;24.944;2022-10-16T16:18:48;9.80;;;4.40;;
7375;SDS011;3728;42.266;24.944;2022-10-16T16:21:23;16.50;;;4.57;;
7375;SDS011;3728;42.266;24.944;2022-10-16T16:23:54;14.10;;;4.60;;
7375;SDS011;3728;42.266;24.944;2022-10-16T16:26:23;21.47;;;5.37;;
7375;SDS011;3728;42.266;24.944;2022-10-16T16:28:54;13.83;;;5.20;;
7375;SDS011;3728;42.266;24.944;2022-10-16T16:31:24;9.13;;;5.20;;
7375;SDS011;3728;42.266;24.944;2022-10-16T16:33:54;9.50;;;5.27;;
7375;SDS011;3728;42.266;24.944;2022-10-16T16:36:23;13.40;;;4.83;;
7375;SDS011;3728;42.266;24.944;2022-10-16T16:38:52;8.60;;;4.47;;
7375;SDS011;3728;42.266;24.944;2022-10-16T16:41:21;11.47;;;4.90;;
7375;SDS011;3728;42.266;24.944;2022-10-16T16:43:53;13.33;;;5.13;;
7375;SDS011;3728;42.266;24.944;2022-10-16T16:46:28;11.00;;;6.47;;
7375;SDS011;3728;42.266;24.944;2022-10-16T16:48:57;12.33;;;6.20;;
7375;SDS011;3728;42.266;24.944;2022-10-16T16:51:28;11.30;;;6.20;;
7375;SDS011;3728;42.266;24.944;2022-10-16T16:53:56;15.33;;;10.93;;
7375;SDS011;3728;42.266;24.944;2022-10-16T16:56:25;19.50;;;12.20;;
7375;SDS011;3728;42.266;24.944;2022-10-16T16:59:03;21.67;;;12.20;;
7375;SDS011;3728;42.266;24.944;2022-10-16T17:01:31;27.07;;;14.47;;
7375;SDS011;3728;42.266;24.944;2022-10-16T17:03:59;22.10;;;14.03;;
7375;SDS011;3728;42.266;24.944;2022-10-16T17:06:28;26.17;;;18.80;;
7375;SDS011;3728;42.266;24.944;2022-10-16T17:09:00;22.53;;;16.80;;
7375;SDS011;3728;42.266;24.944;2022-10-16T17:11:33;21.20;;;13.77;;
7375;SDS011;3728;42.266;24.944;2022-10-16T17:14:01;13.20;;;10.20;;
7375;SDS011;3728;42.266;24.944;2022-10-16T17:16:31;12.83;;;10.00;;
7375;SDS011;3728;42.266;24.944;2022-10-16T17:19:03;18.03;;;9.63;;
7375;SDS011;3728;42.266;24.944;2022-10-16T17:21:37;12.43;;;9.70;;
7375;SDS011;3728;42.266;24.944;2022-10-16T17:24:05;15.90;;;10.43;;
7375;SDS011;3728;42.266;24.944;2022-10-16T17:26:34;14.47;;;10.63;;
7375;SDS011;3728;42.266;24.944;2022-10-16T17:29:04;14.47;;;10.83;;
7375;SDS011;3728;42.266;24.944;2022-10-16T17:31:33;13.00;;;11.27;;
7375;SDS011;3728;42.266;24.944;2022-10-16T17:34:04;16.97;;;9.63;;
7375;SDS011;3728;42.266;24.944;2022-10-16T17:36:35;14.73;;;9.47;;
7375;SDS011;3728;42.266;24.944;2022-10-16T17:39:10;11.07;;;6.80;;